Site contains unofficial IBTrACS data. Visit the IBTrACS Website to access archived data.

1867 Tropical Storm NOT_NAMED (1867268N30303)


IBTrACS version v04r00. Visit IBTrACS website for data access.
Please direct all questions to the IBTrACS Q and A forum

Storm track - Intensity - Wind Radii - Intensity Data - Source Data - All data

Summary Information

Storm ID 1867268N30303
Start Sep 24 12Z
Max Intensity 50 kt (Sep 28 18Z)
End Oct 3 18Z
ATCF IDs
Track status Best track data.

Storm track plot

Map of storm track

Intensity plots

Map of storm track

Radial wind information

No radial wind information for this storm


Position and Intensity Table

BASIN ISO_TIME_________ NATURE LAT LON MLC WIND
degrees north degrees east kts
NA 1867-09-24 12:00:00 TS 29.50 -57.50 35
NA 15:00:00 TS 29.85 -57.51 35
NA 18:00:00 TS 30.20 -57.50 35
NA 21:00:00 TS 30.55 -57.45 35
NA 1867-09-25 00:00:00 TS 30.90 -57.40 35
NA 03:00:00 TS 31.25 -57.40 35
NA 06:00:00 TS 31.60 -57.40 35
NA 09:00:00 TS 31.94 -57.36 35
NA 12:00:00 TS 32.30 -57.30 35
NA 15:00:00 TS 32.70 -57.20 37
NA 18:00:00 TS 33.10 -57.10 40
NA 21:00:00 TS 33.46 -57.04 40
NA 1867-09-26 00:00:00 TS 33.80 -57.00 40
NA 03:00:00 TS 34.15 -56.95 40
NA 06:00:00 TS 34.50 -56.90 40
NA 09:00:00 TS 34.85 -56.91 40
NA 12:00:00 TS 35.20 -56.80 40
NA 15:00:00 TS 35.56 -56.41 40
NA 18:00:00 TS 35.90 -55.90 40
NA 21:00:00 TS 36.21 -55.45 40
NA 1867-09-27 00:00:00 TS 36.50 -55.00 40
NA 03:00:00 TS 36.80 -54.55 42
NA 06:00:00 TS 37.10 -54.10 45
NA 09:00:00 TS 37.44 -53.70 45
NA 12:00:00 TS 37.70 -53.20 45
NA 15:00:00 TS 37.79 -52.49 45
NA 18:00:00 TS 37.80 -51.70 45
NA 21:00:00 TS 37.85 -50.95 45
NA 1867-09-28 00:00:00 TS 37.90 -50.20 45
NA 03:00:00 TS 37.95 -49.44 45
NA 06:00:00 TS 38.00 -48.70 45
NA 09:00:00 TS 38.06 -47.94 45
NA 12:00:00 TS 38.10 -47.30 45
NA 15:00:00 TS 38.19 -46.90 47
NA 18:00:00 TS 38.10 -46.60 50
NA 21:00:00 TS 37.59 -46.25 50
NA 1867-09-29 00:00:00 TS 37.00 -45.90 50
NA 03:00:00 TS 36.70 -45.55 50
NA 06:00:00 TS 36.50 -45.20 50
NA 09:00:00 TS 36.26 -44.86 50
NA 12:00:00 TS 36.00 -44.50 50
NA 15:00:00 TS 35.71 -44.10 50
NA 18:00:00 TS 35.40 -43.70 50
NA 21:00:00 TS 35.10 -43.35 50
NA 1867-09-30 00:00:00 TS 34.80 -43.00 50
NA 03:00:00 TS 34.50 -42.60 50
NA 06:00:00 TS 34.20 -42.20 50
NA 09:00:00 TS 33.83 -41.85 50
NA 12:00:00 TS 33.60 -41.50 50
NA 15:00:00 TS 33.68 -41.10 50
NA 18:00:00 TS 33.90 -40.70 50
NA 21:00:00 TS 34.05 -40.35 50
NA 1867-10-01 00:00:00 TS 34.20 -40.00 50
NA 03:00:00 TS 34.36 -39.60 50
NA 06:00:00 TS 34.50 -39.20 50
NA 09:00:00 TS 34.57 -38.83 50
NA 12:00:00 TS 34.70 -38.50 50
NA 15:00:00 TS 35.02 -38.19 50
NA 18:00:00 TS 35.40 -37.90 50
NA 21:00:00 TS 35.70 -37.65 50
NA 1867-10-02 00:00:00 TS 36.00 -37.40 50
NA 03:00:00 TS 36.35 -37.10 50
NA 06:00:00 TS 36.70 -36.80 50
NA 09:00:00 TS 37.00 -36.55 50
NA 12:00:00 TS 37.30 -36.30 50
NA 15:00:00 TS 37.64 -36.01 50
NA 18:00:00 TS 38.00 -35.70 50
NA 21:00:00 TS 38.35 -35.36 50
NA 1867-10-03 00:00:00 TS 38.70 -35.00 50
NA 03:00:00 TS 39.06 -34.64 50
NA 06:00:00 TS 39.40 -34.30 50
NA 09:00:00 TS 39.70 -34.00 50
NA 12:00:00 TS 40.00 -33.70 50
NA 15:00:00 TS 40.34 -33.36 47
NA 18:00:00 TS 40.70 -33.00 45

Source Information

Agency Information
USA
TOKYO
CMA
HKO
NEWDELHI
REUNION
BOM
NADI
WELLINGTON
DS824
TD9636
TD9635
NEUMANN
MLC

All available IBTrACS Data

SEASON BASIN SUBBASIN ISO_TIME_________ NATURE LAT LON DIST2LAND LANDFALL IFLAG USA SSHS MLC LAT MLC LON MLC CLASS MLC WIND STORM SPEED STORM DIR
Year degrees north degrees east km km 1 degrees north degrees east kts kts degrees
1867 NA NA 1867-09-24 12:00:00 TS 29.50 -57.50 1487 1487 _____________O -1 29.50 -57.50 TS 35 7 0
1867 NA NA 15:00:00 TS 29.85 -57.51 1523 1514 _____________P -1 29.85 -57.51 TS 35 7 0
1867 NA NA 18:00:00 TS 30.20 -57.50 1551 1551 _____________O -1 30.20 -57.50 TS 35 7 5
1867 NA NA 21:00:00 TS 30.55 -57.45 1588 1565 _____________P -1 30.55 -57.45 TS 35 7 7
1867 NA NA 1867-09-25 00:00:00 TS 30.90 -57.40 1565 1535 _____________O -1 30.90 -57.40 TS 35 7 3
1867 NA NA 03:00:00 TS 31.25 -57.40 1535 1494 _____________P -1 31.25 -57.40 TS 35 7 0
1867 NA NA 06:00:00 TS 31.60 -57.40 1494 1464 _____________O -1 31.60 -57.40 TS 35 7 3
1867 NA NA 09:00:00 TS 31.94 -57.36 1464 1428 _____________P -1 31.94 -57.36 TS 35 7 7
1867 NA NA 12:00:00 TS 32.30 -57.30 1428 1393 _____________O -1 32.30 -57.30 TS 35 8 10
1867 NA NA 15:00:00 TS 32.70 -57.20 1393 1358 _____________P -1 32.70 -57.20 TS 37 8 12
1867 NA NA 18:00:00 TS 33.10 -57.10 1358 1329 _____________O -1 33.10 -57.10 TS 40 8 10
1867 NA NA 21:00:00 TS 33.46 -57.04 1324 1295 _____________P -1 33.46 -57.04 TS 40 7 6
1867 NA NA 1867-09-26 00:00:00 TS 33.80 -57.00 1295 1267 _____________O -1 33.80 -57.00 TS 40 7 6
1867 NA NA 03:00:00 TS 34.15 -56.95 1262 1234 _____________P -1 34.15 -56.95 TS 40 7 6
1867 NA NA 06:00:00 TS 34.50 -56.90 1234 1206 _____________O -1 34.50 -56.90 TS 40 7 4
1867 NA NA 09:00:00 TS 34.85 -56.91 1206 1170 _____________P -1 34.85 -56.91 TS 40 7 6
1867 NA NA 12:00:00 TS 35.20 -56.80 1170 1146 _____________O -1 35.20 -56.80 TS 40 8 30
1867 NA NA 15:00:00 TS 35.56 -56.41 1139 1119 _____________P -1 35.56 -56.41 TS 40 10 46
1867 NA NA 18:00:00 TS 35.90 -55.90 1123 1105 _____________O -1 35.90 -55.90 TS 40 10 50
1867 NA NA 21:00:00 TS 36.21 -55.45 1109 1090 _____________P -1 36.21 -55.45 TS 40 9 50
1867 NA NA 1867-09-27 00:00:00 TS 36.50 -55.00 1093 1080 _____________O -1 36.50 -55.00 TS 40 9 51
1867 NA NA 03:00:00 TS 36.80 -54.55 1084 1057 _____________P -1 36.80 -54.55 TS 42 9 50
1867 NA NA 06:00:00 TS 37.10 -54.10 1057 1023 _____________O -1 37.10 -54.10 TS 45 9 47
1867 NA NA 09:00:00 TS 37.44 -53.70 1023 989 _____________P -1 37.44 -53.70 TS 45 9 50
1867 NA NA 12:00:00 TS 37.70 -53.20 989 979 _____________O -1 37.70 -53.20 TS 45 10 70
1867 NA NA 15:00:00 TS 37.79 -52.49 980 980 _____________P -1 37.79 -52.49 TS 45 12 85
1867 NA NA 18:00:00 TS 37.80 -51.70 986 986 _____________O -1 37.80 -51.70 TS 45 12 87
1867 NA NA 21:00:00 TS 37.85 -50.95 996 985 _____________P -1 37.85 -50.95 TS 45 12 85
1867 NA NA 1867-09-28 00:00:00 TS 37.90 -50.20 998 998 _____________O -1 37.90 -50.20 TS 45 12 85
1867 NA NA 03:00:00 TS 37.95 -49.44 1016 1005 _____________P -1 37.95 -49.44 TS 45 12 85
1867 NA NA 06:00:00 TS 38.00 -48.70 1024 1024 _____________O -1 38.00 -48.70 TS 45 12 85
1867 NA NA 09:00:00 TS 38.06 -47.94 1039 1039 _____________P -1 38.06 -47.94 TS 45 11 85
1867 NA NA 12:00:00 TS 38.10 -47.30 1060 1058 _____________O -1 38.10 -47.30 TS 45 8 81
1867 NA NA 15:00:00 TS 38.19 -46.90 1066 1066 _____________P -1 38.19 -46.90 TS 47 5 90
1867 NA NA 18:00:00 TS 38.10 -46.60 1088 1088 _____________O -1 38.10 -46.60 TS 50 8 140
1867 NA NA 21:00:00 TS 37.59 -46.25 1153 1153 _____________P -1 37.59 -46.25 TS 50 12 153
1867 NA NA 1867-09-29 00:00:00 TS 37.00 -45.90 1225 1225 _____________O -1 37.00 -45.90 TS 50 10 148
1867 NA NA 03:00:00 TS 36.70 -45.55 1266 1266 _____________P -1 36.70 -45.55 TS 50 8 132
1867 NA NA 06:00:00 TS 36.50 -45.20 1303 1303 _____________O -1 36.50 -45.20 TS 50 7 129
1867 NA NA 09:00:00 TS 36.26 -44.86 1335 1335 _____________P -1 36.26 -44.86 TS 50 8 131
1867 NA NA 12:00:00 TS 36.00 -44.50 1381 1381 _____________O -1 36.00 -44.50 TS 50 8 132
1867 NA NA 15:00:00 TS 35.71 -44.10 1428 1428 _____________P -1 35.71 -44.10 TS 50 9 133
1867 NA NA 18:00:00 TS 35.40 -43.70 1475 1475 _____________O -1 35.40 -43.70 TS 50 9 135
1867 NA NA 21:00:00 TS 35.10 -43.35 1517 1517 _____________P -1 35.10 -43.35 TS 50 8 136
1867 NA NA 1867-09-30 00:00:00 TS 34.80 -43.00 1565 1565 _____________O -1 34.80 -43.00 TS 50 9 134
1867 NA NA 03:00:00 TS 34.50 -42.60 1612 1612 _____________P -1 34.50 -42.60 TS 50 9 132
1867 NA NA 06:00:00 TS 34.20 -42.20 1659 1659 _____________O -1 34.20 -42.20 TS 50 9 137
1867 NA NA 09:00:00 TS 33.83 -41.85 1716 1716 _____________P -1 33.83 -41.85 TS 50 8 136
1867 NA NA 12:00:00 TS 33.60 -41.50 1750 1750 _____________O -1 33.60 -41.50 TS 50 6 104
1867 NA NA 15:00:00 TS 33.68 -41.10 1759 1755 _____________P -1 33.68 -41.10 TS 50 7 66
1867 NA NA 18:00:00 TS 33.90 -40.70 1760 1756 _____________O -1 33.90 -40.70 TS 50 7 59
1867 NA NA 21:00:00 TS 34.05 -40.35 1771 1762 _____________P -1 34.05 -40.35 TS 50 7 63
1867 NA NA 1867-10-01 00:00:00 TS 34.20 -40.00 1768 1764 _____________O -1 34.20 -40.00 TS 50 7 64
1867 NA NA 03:00:00 TS 34.36 -39.60 1771 1771 _____________P -1 34.36 -39.60 TS 50 7 66
1867 NA NA 06:00:00 TS 34.50 -39.20 1784 1784 _____________O -1 34.50 -39.20 TS 50 7 71
1867 NA NA 09:00:00 TS 34.57 -38.83 1797 1797 _____________P -1 34.57 -38.83 TS 50 6 71
1867 NA NA 12:00:00 TS 34.70 -38.50 1805 1796 _____________O -1 34.70 -38.50 TS 50 7 50
1867 NA NA 15:00:00 TS 35.02 -38.19 1796 1780 _____________P -1 35.02 -38.19 TS 50 9 35
1867 NA NA 18:00:00 TS 35.40 -37.90 1780 1767 _____________O -1 35.40 -37.90 TS 50 8 33
1867 NA NA 21:00:00 TS 35.70 -37.65 1773 1760 _____________P -1 35.70 -37.65 TS 50 7 34
1867 NA NA 1867-10-02 00:00:00 TS 36.00 -37.40 1760 1748 _____________O -1 36.00 -37.40 TS 50 8 34
1867 NA NA 03:00:00 TS 36.35 -37.10 1747 1742 _____________P -1 36.35 -37.10 TS 50 9 35
1867 NA NA 06:00:00 TS 36.70 -36.80 1742 1731 _____________O -1 36.70 -36.80 TS 50 8 34
1867 NA NA 09:00:00 TS 37.00 -36.55 1737 1727 _____________P -1 37.00 -36.55 TS 50 7 34
1867 NA NA 12:00:00 TS 37.30 -36.30 1727 1717 _____________O -1 37.30 -36.30 TS 50 8 34
1867 NA NA 15:00:00 TS 37.64 -36.01 1724 1714 _____________P -1 37.64 -36.01 TS 50 8 34
1867 NA NA 18:00:00 TS 38.00 -35.70 1714 1706 _____________O -1 38.00 -35.70 TS 50 9 36
1867 NA NA 21:00:00 TS 38.35 -35.36 1713 1713 _____________P -1 38.35 -35.36 TS 50 9 38
1867 NA NA 1867-10-03 00:00:00 TS 38.70 -35.00 1713 1713 _____________O -1 38.70 -35.00 TS 50 9 38
1867 NA NA 03:00:00 TS 39.06 -34.64 1714 1714 _____________P -1 39.06 -34.64 TS 50 9 38
1867 NA NA 06:00:00 TS 39.40 -34.30 1715 1715 _____________O -1 39.40 -34.30 TS 50 8 38
1867 NA NA 09:00:00 TS 39.70 -34.00 1718 1718 _____________P -1 39.70 -34.00 TS 50 8 38
1867 NA NA 12:00:00 TS 40.00 -33.70 1720 1720 _____________O -1 40.00 -33.70 TS 50 8 37
1867 NA NA 15:00:00 TS 40.34 -33.36 1722 1722 _____________P -1 40.34 -33.36 TS 47 9 37
1867 NA NA 18:00:00 TS 40.70 -33.00 1726 _____________O -1 40.70 -33.00 TS 45 9 37